sensor_id;sensor_type;location;lat;lon;timestamp;P1;durP1;ratioP1;P2;durP2;ratioP2
42662;SDS011;44330;51.360;6.686;2023-04-25T00:02:02;21.67;;;5.70;;
42662;SDS011;44330;51.360;6.686;2023-04-25T00:04:28;22.73;;;5.75;;
42662;SDS011;44330;51.360;6.686;2023-04-25T00:06:54;15.70;;;5.70;;
42662;SDS011;44330;51.360;6.686;2023-04-25T00:09:20;17.73;;;5.75;;
42662;SDS011;44330;51.360;6.686;2023-04-25T00:11:46;14.88;;;5.38;;
42662;SDS011;44330;51.360;6.686;2023-04-25T00:14:12;23.48;;;6.03;;
42662;SDS011;44330;51.360;6.686;2023-04-25T00:16:38;20.08;;;6.57;;
42662;SDS011;44330;51.360;6.686;2023-04-25T00:19:03;19.60;;;5.90;;
42662;SDS011;44330;51.360;6.686;2023-04-25T00:21:29;19.83;;;5.03;;
42662;SDS011;44330;51.360;6.686;2023-04-25T00:23:56;20.98;;;5.35;;
42662;SDS011;44330;51.360;6.686;2023-04-25T00:26:22;22.17;;;6.15;;
42662;SDS011;44330;51.360;6.686;2023-04-25T00:28:47;19.88;;;4.88;;
42662;SDS011;44330;51.360;6.686;2023-04-25T00:31:13;15.10;;;5.38;;
42662;SDS011;44330;51.360;6.686;2023-04-25T00:33:39;29.13;;;5.82;;
42662;SDS011;44330;51.360;6.686;2023-04-25T00:36:05;16.92;;;5.38;;
42662;SDS011;44330;51.360;6.686;2023-04-25T00:38:31;14.55;;;5.38;;
42662;SDS011;44330;51.360;6.686;2023-04-25T00:40:57;18.05;;;5.75;;
42662;SDS011;44330;51.360;6.686;2023-04-25T00:43:24;13.23;;;4.85;;
42662;SDS011;44330;51.360;6.686;2023-04-25T00:45:51;17.90;;;4.95;;
42662;SDS011;44330;51.360;6.686;2023-04-25T00:48:17;16.00;;;5.30;;
42662;SDS011;44330;51.360;6.686;2023-04-25T00:50:52;14.90;;;4.78;;
42662;SDS011;44330;51.360;6.686;2023-04-25T00:53:19;17.75;;;5.22;;
42662;SDS011;44330;51.360;6.686;2023-04-25T00:55:46;19.63;;;4.53;;
42662;SDS011;44330;51.360;6.686;2023-04-25T00:58:12;14.27;;;5.15;;
42662;SDS011;44330;51.360;6.686;2023-04-25T01:00:39;24.25;;;4.80;;
42662;SDS011;44330;51.360;6.686;2023-04-25T01:03:05;14.10;;;4.22;;
42662;SDS011;44330;51.360;6.686;2023-04-25T01:05:31;17.83;;;4.90;;
42662;SDS011;44330;51.360;6.686;2023-04-25T01:07:56;18.55;;;4.78;;
42662;SDS011;44330;51.360;6.686;2023-04-25T01:10:23;13.00;;;4.50;;
42662;SDS011;44330;51.360;6.686;2023-04-25T01:12:48;13.68;;;4.45;;
42662;SDS011;44330;51.360;6.686;2023-04-25T01:15:14;19.02;;;4.80;;
42662;SDS011;44330;51.360;6.686;2023-04-25T01:17:40;17.48;;;4.60;;
42662;SDS011;44330;51.360;6.686;2023-04-25T01:20:06;19.88;;;5.30;;
42662;SDS011;44330;51.360;6.686;2023-04-25T01:22:34;19.70;;;4.85;;
42662;SDS011;44330;51.360;6.686;2023-04-25T01:25:00;19.75;;;4.40;;
42662;SDS011;44330;51.360;6.686;2023-04-25T01:27:26;23.05;;;5.25;;
42662;SDS011;44330;51.360;6.686;2023-04-25T01:29:53;13.60;;;5.25;;
42662;SDS011;44330;51.360;6.686;2023-04-25T01:32:19;23.02;;;6.00;;
42662;SDS011;44330;51.360;6.686;2023-04-25T01:34:47;17.63;;;5.18;;
42662;SDS011;44330;51.360;6.686;2023-04-25T01:37:16;10.60;;;4.85;;
42662;SDS011;44330;51.360;6.686;2023-04-25T01:39:42;13.00;;;5.32;;
42662;SDS011;44330;51.360;6.686;2023-04-25T01:42:08;21.05;;;5.38;;
42662;SDS011;44330;51.360;6.686;2023-04-25T01:44:33;19.10;;;5.00;;
42662;SDS011;44330;51.360;6.686;2023-04-25T01:46:59;17.42;;;5.03;;
42662;SDS011;44330;51.360;6.686;2023-04-25T01:49:25;15.27;;;5.78;;
42662;SDS011;44330;51.360;6.686;2023-04-25T01:51:50;11.20;;;4.15;;
42662;SDS011;44330;51.360;6.686;2023-04-25T01:54:16;12.95;;;4.95;;
42662;SDS011;44330;51.360;6.686;2023-04-25T01:56:43;16.33;;;4.53;;
42662;SDS011;44330;51.360;6.686;2023-04-25T01:59:14;18.92;;;5.10;;
42662;SDS011;44330;51.360;6.686;2023-04-25T02:01:40;15.90;;;4.80;;
42662;SDS011;44330;51.360;6.686;2023-04-25T02:04:05;11.15;;;3.97;;
42662;SDS011;44330;51.360;6.686;2023-04-25T02:06:31;18.40;;;5.07;;
42662;SDS011;44330;51.360;6.686;2023-04-25T02:08:57;16.40;;;4.55;;
42662;SDS011;44330;51.360;6.686;2023-04-25T02:11:22;12.85;;;4.28;;
42662;SDS011;44330;51.360;6.686;2023-04-25T02:13:48;15.48;;;4.85;;
42662;SDS011;44330;51.360;6.686;2023-04-25T02:16:14;11.73;;;4.15;;
42662;SDS011;44330;51.360;6.686;2023-04-25T02:18:39;18.73;;;4.30;;
42662;SDS011;44330;51.360;6.686;2023-04-25T02:21:05;9.38;;;4.15;;
42662;SDS011;44330;51.360;6.686;2023-04-25T02:23:31;13.68;;;4.68;;
42662;SDS011;44330;51.360;6.686;2023-04-25T02:25:56;10.73;;;4.43;;
42662;SDS011;44330;51.360;6.686;2023-04-25T02:28:23;14.68;;;4.82;;
42662;SDS011;44330;51.360;6.686;2023-04-25T02:30:52;14.55;;;3.88;;
42662;SDS011;44330;51.360;6.686;2023-04-25T02:33:17;12.90;;;4.15;;
42662;SDS011;44330;51.360;6.686;2023-04-25T02:35:46;12.75;;;4.55;;
42662;SDS011;44330;51.360;6.686;2023-04-25T02:38:12;11.75;;;4.38;;
42662;SDS011;44330;51.360;6.686;2023-04-25T02:40:37;14.27;;;4.18;;
42662;SDS011;44330;51.360;6.686;2023-04-25T02:43:03;12.27;;;4.18;;
42662;SDS011;44330;51.360;6.686;2023-04-25T02:45:28;16.75;;;4.78;;
42662;SDS011;44330;51.360;6.686;2023-04-25T02:47:54;12.88;;;4.80;;
42662;SDS011;44330;51.360;6.686;2023-04-25T02:50:19;15.52;;;4.45;;
42662;SDS011;44330;51.360;6.686;2023-04-25T02:52:45;17.90;;;5.10;;
42662;SDS011;44330;51.360;6.686;2023-04-25T02:55:12;13.88;;;4.90;;
42662;SDS011;44330;51.360;6.686;2023-04-25T02:57:38;17.52;;;5.00;;
42662;SDS011;44330;51.360;6.686;2023-04-25T03:00:04;14.05;;;4.60;;
42662;SDS011;44330;51.360;6.686;2023-04-25T03:02:30;20.73;;;5.22;;
42662;SDS011;44330;51.360;6.686;2023-04-25T03:04:56;15.02;;;4.25;;
42662;SDS011;44330;51.360;6.686;2023-04-25T03:07:21;20.48;;;5.28;;
42662;SDS011;44330;51.360;6.686;2023-04-25T03:09:47;16.08;;;5.78;;
42662;SDS011;44330;51.360;6.686;2023-04-25T03:12:12;21.83;;;6.20;;
42662;SDS011;44330;51.360;6.686;2023-04-25T03:14:38;15.85;;;5.25;;
42662;SDS011;44330;51.360;6.686;2023-04-25T03:17:03;26.38;;;6.00;;
42662;SDS011;44330;51.360;6.686;2023-04-25T03:19:29;17.85;;;5.53;;
42662;SDS011;44330;51.360;6.686;2023-04-25T03:21:55;23.42;;;5.15;;
42662;SDS011;44330;51.360;6.686;2023-04-25T03:24:21;15.40;;;5.20;;
42662;SDS011;44330;51.360;6.686;2023-04-25T03:26:46;15.70;;;5.53;;
42662;SDS011;44330;51.360;6.686;2023-04-25T03:29:12;18.05;;;5.50;;
42662;SDS011;44330;51.360;6.686;2023-04-25T03:31:38;15.02;;;4.80;;
42662;SDS011;44330;51.360;6.686;2023-04-25T03:34:03;19.42;;;4.88;;
42662;SDS011;44330;51.360;6.686;2023-04-25T03:36:29;17.90;;;5.68;;
42662;SDS011;44330;51.360;6.686;2023-04-25T03:38:54;20.55;;;5.53;;
42662;SDS011;44330;51.360;6.686;2023-04-25T03:41:20;22.00;;;5.60;;
42662;SDS011;44330;51.360;6.686;2023-04-25T03:43:46;15.85;;;6.10;;
42662;SDS011;44330;51.360;6.686;2023-04-25T03:46:11;14.45;;;4.68;;
42662;SDS011;44330;51.360;6.686;2023-04-25T03:48:37;26.98;;;6.43;;
42662;SDS011;44330;51.360;6.686;2023-04-25T03:51:02;24.67;;;5.53;;
42662;SDS011;44330;51.360;6.686;2023-04-25T03:53:28;21.88;;;5.88;;
42662;SDS011;44330;51.360;6.686;2023-04-25T03:55:53;18.50;;;5.20;;
42662;SDS011;44330;51.360;6.686;2023-04-25T03:58:19;21.85;;;5.97;;
42662;SDS011;44330;51.360;6.686;2023-04-25T04:00:45;27.15;;;6.93;;
42662;SDS011;44330;51.360;6.686;2023-04-25T04:03:10;18.40;;;5.15;;
42662;SDS011;44330;51.360;6.686;2023-04-25T04:05:36;18.90;;;5.85;;
42662;SDS011;44330;51.360;6.686;2023-04-25T04:08:02;24.00;;;5.22;;
42662;SDS011;44330;51.360;6.686;2023-04-25T04:10:28;26.95;;;6.97;;
42662;SDS011;44330;51.360;6.686;2023-04-25T04:12:53;22.88;;;6.20;;
42662;SDS011;44330;51.360;6.686;2023-04-25T04:15:19;24.23;;;6.78;;
42662;SDS011;44330;51.360;6.686;2023-04-25T04:17:44;23.88;;;6.75;;
42662;SDS011;44330;51.360;6.686;2023-04-25T04:20:11;23.92;;;6.03;;
42662;SDS011;44330;51.360;6.686;2023-04-25T04:22:37;20.92;;;5.88;;
42662;SDS011;44330;51.360;6.686;2023-04-25T04:25:03;21.92;;;5.95;;
42662;SDS011;44330;51.360;6.686;2023-04-25T04:27:30;23.90;;;6.60;;
42662;SDS011;44330;51.360;6.686;2023-04-25T04:29:57;21.17;;;6.85;;
42662;SDS011;44330;51.360;6.686;2023-04-25T04:32:22;28.40;;;6.53;;
42662;SDS011;44330;51.360;6.686;2023-04-25T04:34:49;29.40;;;6.63;;
42662;SDS011;44330;51.360;6.686;2023-04-25T04:37:14;23.65;;;5.97;;
42662;SDS011;44330;51.360;6.686;2023-04-25T04:39:40;22.63;;;6.78;;
42662;SDS011;44330;51.360;6.686;2023-04-25T04:42:06;23.85;;;6.55;;
42662;SDS011;44330;51.360;6.686;2023-04-25T04:44:32;25.92;;;6.60;;
42662;SDS011;44330;51.360;6.686;2023-04-25T04:46:59;28.55;;;6.95;;
42662;SDS011;44330;51.360;6.686;2023-04-25T04:49:25;20.15;;;6.63;;
42662;SDS011;44330;51.360;6.686;2023-04-25T04:51:51;38.75;;;7.65;;
42662;SDS011;44330;51.360;6.686;2023-04-25T04:54:17;30.98;;;7.63;;
42662;SDS011;44330;51.360;6.686;2023-04-25T04:56:42;21.58;;;6.22;;
42662;SDS011;44330;51.360;6.686;2023-04-25T04:59:08;34.45;;;7.15;;
42662;SDS011;44330;51.360;6.686;2023-04-25T05:01:34;29.00;;;6.85;;
42662;SDS011;44330;51.360;6.686;2023-04-25T05:04:02;23.67;;;7.25;;
42662;SDS011;44330;51.360;6.686;2023-04-25T05:06:29;28.35;;;7.57;;
42662;SDS011;44330;51.360;6.686;2023-04-25T05:08:56;28.58;;;6.38;;
42662;SDS011;44330;51.360;6.686;2023-04-25T05:11:22;21.48;;;6.25;;
42662;SDS011;44330;51.360;6.686;2023-04-25T05:13:49;22.60;;;6.32;;
42662;SDS011;44330;51.360;6.686;2023-04-25T05:16:16;18.42;;;7.00;;
42662;SDS011;44330;51.360;6.686;2023-04-25T05:18:41;24.88;;;6.65;;
42662;SDS011;44330;51.360;6.686;2023-04-25T05:21:07;24.38;;;6.07;;
42662;SDS011;44330;51.360;6.686;2023-04-25T05:23:32;21.25;;;7.10;;
42662;SDS011;44330;51.360;6.686;2023-04-25T05:25:58;26.65;;;6.50;;
42662;SDS011;44330;51.360;6.686;2023-04-25T05:28:24;28.40;;;6.68;;
42662;SDS011;44330;51.360;6.686;2023-04-25T05:30:50;23.20;;;6.68;;
42662;SDS011;44330;51.360;6.686;2023-04-25T05:33:16;22.58;;;7.45;;
42662;SDS011;44330;51.360;6.686;2023-04-25T05:35:42;24.17;;;6.85;;
42662;SDS011;44330;51.360;6.686;2023-04-25T05:38:07;21.27;;;5.50;;
42662;SDS011;44330;51.360;6.686;2023-04-25T05:40:33;27.15;;;6.60;;
42662;SDS011;44330;51.360;6.686;2023-04-25T05:42:59;23.70;;;6.45;;
42662;SDS011;44330;51.360;6.686;2023-04-25T05:45:24;18.70;;;5.32;;
42662;SDS011;44330;51.360;6.686;2023-04-25T05:47:50;15.23;;;4.45;;
42662;SDS011;44330;51.360;6.686;2023-04-25T05:50:15;20.80;;;4.90;;
42662;SDS011;44330;51.360;6.686;2023-04-25T05:52:41;27.00;;;5.63;;
42662;SDS011;44330;51.360;6.686;2023-04-25T05:55:07;19.45;;;5.70;;
42662;SDS011;44330;51.360;6.686;2023-04-25T05:57:32;29.15;;;5.93;;
42662;SDS011;44330;51.360;6.686;2023-04-25T05:59:58;22.38;;;5.60;;
42662;SDS011;44330;51.360;6.686;2023-04-25T06:02:24;21.10;;;4.70;;
42662;SDS011;44330;51.360;6.686;2023-04-25T06:04:50;17.27;;;4.75;;
42662;SDS011;44330;51.360;6.686;2023-04-25T06:07:16;21.45;;;6.32;;
42662;SDS011;44330;51.360;6.686;2023-04-25T06:09:42;24.55;;;6.43;;
42662;SDS011;44330;51.360;6.686;2023-04-25T06:12:08;34.00;;;7.88;;
42662;SDS011;44330;51.360;6.686;2023-04-25T06:14:34;33.00;;;8.73;;
42662;SDS011;44330;51.360;6.686;2023-04-25T06:16:59;22.73;;;6.95;;
42662;SDS011;44330;51.360;6.686;2023-04-25T06:19:31;17.02;;;4.93;;
42662;SDS011;44330;51.360;6.686;2023-04-25T06:22:00;22.05;;;5.03;;
42662;SDS011;44330;51.360;6.686;2023-04-25T06:24:26;16.73;;;4.63;;
42662;SDS011;44330;51.360;6.686;2023-04-25T06:26:52;25.15;;;4.40;;
42662;SDS011;44330;51.360;6.686;2023-04-25T06:29:17;24.55;;;5.63;;
42662;SDS011;44330;51.360;6.686;2023-04-25T06:31:43;20.05;;;5.30;;
42662;SDS011;44330;51.360;6.686;2023-04-25T06:34:09;21.42;;;4.85;;
42662;SDS011;44330;51.360;6.686;2023-04-25T06:36:34;23.90;;;6.95;;
42662;SDS011;44330;51.360;6.686;2023-04-25T06:39:00;30.15;;;6.88;;
42662;SDS011;44330;51.360;6.686;2023-04-25T06:41:26;20.88;;;5.60;;
42662;SDS011;44330;51.360;6.686;2023-04-25T06:43:51;23.90;;;6.90;;
42662;SDS011;44330;51.360;6.686;2023-04-25T06:46:17;18.35;;;4.40;;
42662;SDS011;44330;51.360;6.686;2023-04-25T06:48:45;14.60;;;4.07;;
42662;SDS011;44330;51.360;6.686;2023-04-25T06:51:11;21.45;;;4.68;;
42662;SDS011;44330;51.360;6.686;2023-04-25T06:53:38;14.85;;;4.35;;
42662;SDS011;44330;51.360;6.686;2023-04-25T06:56:04;18.10;;;4.18;;
42662;SDS011;44330;51.360;6.686;2023-04-25T06:58:30;20.67;;;5.97;;
42662;SDS011;44330;51.360;6.686;2023-04-25T07:00:55;27.30;;;5.05;;
42662;SDS011;44330;51.360;6.686;2023-04-25T07:03:21;16.55;;;3.72;;
42662;SDS011;44330;51.360;6.686;2023-04-25T07:05:47;16.02;;;3.60;;
42662;SDS011;44330;51.360;6.686;2023-04-25T07:08:12;12.93;;;3.22;;
42662;SDS011;44330;51.360;6.686;2023-04-25T07:10:38;23.60;;;3.95;;
42662;SDS011;44330;51.360;6.686;2023-04-25T07:13:03;22.48;;;3.90;;
42662;SDS011;44330;51.360;6.686;2023-04-25T07:15:29;13.95;;;3.15;;
42662;SDS011;44330;51.360;6.686;2023-04-25T07:17:54;17.33;;;3.88;;
42662;SDS011;44330;51.360;6.686;2023-04-25T07:20:20;21.45;;;4.07;;
42662;SDS011;44330;51.360;6.686;2023-04-25T07:22:45;14.07;;;3.33;;
42662;SDS011;44330;51.360;6.686;2023-04-25T07:25:11;23.88;;;3.85;;
42662;SDS011;44330;51.360;6.686;2023-04-25T07:27:37;17.00;;;3.33;;
42662;SDS011;44330;51.360;6.686;2023-04-25T07:30:03;21.15;;;4.32;;
42662;SDS011;44330;51.360;6.686;2023-04-25T07:32:29;16.48;;;4.18;;
42662;SDS011;44330;51.360;6.686;2023-04-25T07:34:54;14.32;;;3.60;;
42662;SDS011;44330;51.360;6.686;2023-04-25T07:37:20;16.00;;;3.78;;
42662;SDS011;44330;51.360;6.686;2023-04-25T07:39:48;22.25;;;3.25;;
42662;SDS011;44330;51.360;6.686;2023-04-25T07:42:14;17.07;;;3.43;;
42662;SDS011;44330;51.360;6.686;2023-04-25T07:44:40;15.18;;;2.28;;
42662;SDS011;44330;51.360;6.686;2023-04-25T07:47:08;17.17;;;3.38;;
42662;SDS011;44330;51.360;6.686;2023-04-25T07:49:35;10.10;;;2.40;;
42662;SDS011;44330;51.360;6.686;2023-04-25T07:52:04;12.32;;;2.40;;
42662;SDS011;44330;51.360;6.686;2023-04-25T07:54:31;11.50;;;2.38;;
42662;SDS011;44330;51.360;6.686;2023-04-25T07:56:57;16.23;;;4.07;;
42662;SDS011;44330;51.360;6.686;2023-04-25T07:59:23;11.57;;;2.60;;
42662;SDS011;44330;51.360;6.686;2023-04-25T08:01:48;14.88;;;3.25;;
42662;SDS011;44330;51.360;6.686;2023-04-25T08:04:14;13.63;;;2.45;;
42662;SDS011;44330;51.360;6.686;2023-04-25T08:06:40;12.95;;;2.97;;
42662;SDS011;44330;51.360;6.686;2023-04-25T08:09:05;9.20;;;2.25;;
42662;SDS011;44330;51.360;6.686;2023-04-25T08:11:31;13.20;;;2.70;;
42662;SDS011;44330;51.360;6.686;2023-04-25T08:13:56;10.13;;;2.20;;
42662;SDS011;44330;51.360;6.686;2023-04-25T08:16:22;10.35;;;2.50;;
42662;SDS011;44330;51.360;6.686;2023-04-25T08:18:48;7.38;;;1.85;;
42662;SDS011;44330;51.360;6.686;2023-04-25T08:21:15;8.25;;;2.20;;
42662;SDS011;44330;51.360;6.686;2023-04-25T08:23:40;11.73;;;2.50;;
42662;SDS011;44330;51.360;6.686;2023-04-25T08:26:06;10.15;;;2.85;;
42662;SDS011;44330;51.360;6.686;2023-04-25T08:28:32;14.90;;;2.97;;
42662;SDS011;44330;51.360;6.686;2023-04-25T08:30:57;17.52;;;4.50;;
42662;SDS011;44330;51.360;6.686;2023-04-25T08:33:23;10.00;;;2.10;;
42662;SDS011;44330;51.360;6.686;2023-04-25T08:35:48;9.25;;;2.05;;
42662;SDS011;44330;51.360;6.686;2023-04-25T08:38:14;10.93;;;2.90;;
42662;SDS011;44330;51.360;6.686;2023-04-25T08:40:40;6.30;;;1.70;;
42662;SDS011;44330;51.360;6.686;2023-04-25T08:43:06;11.23;;;2.72;;
42662;SDS011;44330;51.360;6.686;2023-04-25T08:45:38;11.32;;;2.42;;
42662;SDS011;44330;51.360;6.686;2023-04-25T08:48:06;15.00;;;2.83;;
42662;SDS011;44330;51.360;6.686;2023-04-25T08:50:36;11.18;;;2.25;;
42662;SDS011;44330;51.360;6.686;2023-04-25T08:53:04;9.55;;;2.03;;
42662;SDS011;44330;51.360;6.686;2023-04-25T08:55:34;9.95;;;1.83;;
42662;SDS011;44330;51.360;6.686;2023-04-25T08:58:02;8.85;;;2.00;;
42662;SDS011;44330;51.360;6.686;2023-04-25T09:00:29;8.13;;;1.60;;
42662;SDS011;44330;51.360;6.686;2023-04-25T09:02:55;6.40;;;1.50;;
42662;SDS011;44330;51.360;6.686;2023-04-25T09:05:21;11.20;;;2.03;;
42662;SDS011;44330;51.360;6.686;2023-04-25T09:07:48;10.20;;;1.77;;
42662;SDS011;44330;51.360;6.686;2023-04-25T09:10:13;10.77;;;2.40;;
42662;SDS011;44330;51.360;6.686;2023-04-25T09:12:39;8.38;;;1.92;;
42662;SDS011;44330;51.360;6.686;2023-04-25T09:15:06;9.52;;;1.90;;
42662;SDS011;44330;51.360;6.686;2023-04-25T09:17:33;12.35;;;1.80;;
42662;SDS011;44330;51.360;6.686;2023-04-25T09:20:09;10.65;;;1.70;;
42662;SDS011;44330;51.360;6.686;2023-04-25T09:22:37;6.25;;;1.55;;
42662;SDS011;44330;51.360;6.686;2023-04-25T09:25:12;6.18;;;1.50;;
42662;SDS011;44330;51.360;6.686;2023-04-25T09:27:49;5.43;;;1.50;;
42662;SDS011;44330;51.360;6.686;2023-04-25T09:30:16;6.38;;;1.48;;
42662;SDS011;44330;51.360;6.686;2023-04-25T09:32:43;5.43;;;1.67;;
42662;SDS011;44330;51.360;6.686;2023-04-25T09:35:12;8.25;;;1.85;;
42662;SDS011;44330;51.360;6.686;2023-04-25T09:37:50;9.23;;;1.85;;
42662;SDS011;44330;51.360;6.686;2023-04-25T09:40:15;9.85;;;2.03;;
42662;SDS011;44330;51.360;6.686;2023-04-25T09:42:43;8.30;;;1.85;;
42662;SDS011;44330;51.360;6.686;2023-04-25T09:45:09;6.85;;;1.58;;
42662;SDS011;44330;51.360;6.686;2023-04-25T09:47:38;8.57;;;1.55;;
42662;SDS011;44330;51.360;6.686;2023-04-25T09:50:04;4.07;;;1.40;;
42662;SDS011;44330;51.360;6.686;2023-04-25T09:52:40;4.93;;;1.60;;
42662;SDS011;44330;51.360;6.686;2023-04-25T09:55:05;9.02;;;1.63;;
42662;SDS011;44330;51.360;6.686;2023-04-25T09:57:31;7.63;;;1.70;;
42662;SDS011;44330;51.360;6.686;2023-04-25T09:59:57;8.25;;;1.40;;
42662;SDS011;44330;51.360;6.686;2023-04-25T10:02:25;8.18;;;1.90;;
42662;SDS011;44330;51.360;6.686;2023-04-25T10:04:54;8.30;;;2.13;;
42662;SDS011;44330;51.360;6.686;2023-04-25T10:07:22;4.63;;;1.48;;
42662;SDS011;44330;51.360;6.686;2023-04-25T10:09:51;5.13;;;1.50;;
42662;SDS011;44330;51.360;6.686;2023-04-25T10:12:24;8.05;;;1.95;;
42662;SDS011;44330;51.360;6.686;2023-04-25T10:14:50;9.35;;;1.83;;
42662;SDS011;44330;51.360;6.686;2023-04-25T10:17:17;7.07;;;1.80;;
42662;SDS011;44330;51.360;6.686;2023-04-25T10:19:44;5.97;;;1.40;;
42662;SDS011;44330;51.360;6.686;2023-04-25T10:22:18;8.55;;;1.95;;
42662;SDS011;44330;51.360;6.686;2023-04-25T10:24:51;5.10;;;1.45;;
42662;SDS011;44330;51.360;6.686;2023-04-25T10:27:17;5.45;;;1.42;;
42662;SDS011;44330;51.360;6.686;2023-04-25T10:29:43;6.30;;;2.10;;
42662;SDS011;44330;51.360;6.686;2023-04-25T10:32:09;7.45;;;1.80;;
42662;SDS011;44330;51.360;6.686;2023-04-25T10:34:41;4.82;;;1.30;;
42662;SDS011;44330;51.360;6.686;2023-04-25T10:37:12;8.20;;;1.65;;
42662;SDS011;44330;51.360;6.686;2023-04-25T10:39:38;6.15;;;1.73;;
42662;SDS011;44330;51.360;6.686;2023-04-25T10:42:06;5.50;;;1.50;;
42662;SDS011;44330;51.360;6.686;2023-04-25T10:44:32;4.90;;;1.58;;
42662;SDS011;44330;51.360;6.686;2023-04-25T10:46:59;5.70;;;1.90;;
42662;SDS011;44330;51.360;6.686;2023-04-25T10:52:13;10.60;;;1.83;;
42662;SDS011;44330;51.360;6.686;2023-04-25T10:54:41;9.32;;;1.73;;
42662;SDS011;44330;51.360;6.686;2023-04-25T10:57:08;11.48;;;1.50;;
42662;SDS011;44330;51.360;6.686;2023-04-25T10:59:57;7.72;;;1.75;;
42662;SDS011;44330;51.360;6.686;2023-04-25T11:02:30;9.27;;;1.85;;
42662;SDS011;44330;51.360;6.686;2023-04-25T11:04:56;7.05;;;1.90;;
42662;SDS011;44330;51.360;6.686;2023-04-25T11:10:00;7.53;;;1.85;;
42662;SDS011;44330;51.360;6.686;2023-04-25T11:12:29;5.53;;;1.63;;
42662;SDS011;44330;51.360;6.686;2023-04-25T11:14:58;6.85;;;2.28;;
42662;SDS011;44330;51.360;6.686;2023-04-25T11:17:28;7.15;;;2.05;;
42662;SDS011;44330;51.360;6.686;2023-04-25T11:19:54;4.32;;;1.45;;
42662;SDS011;44330;51.360;6.686;2023-04-25T11:22:21;13.15;;;2.00;;
42662;SDS011;44330;51.360;6.686;2023-04-25T11:24:47;6.13;;;2.10;;
42662;SDS011;44330;51.360;6.686;2023-04-25T11:27:13;5.85;;;1.77;;
42662;SDS011;44330;51.360;6.686;2023-04-25T11:29:39;10.82;;;1.90;;
42662;SDS011;44330;51.360;6.686;2023-04-25T11:32:05;5.82;;;1.50;;
42662;SDS011;44330;51.360;6.686;2023-04-25T11:34:31;4.72;;;1.30;;
42662;SDS011;44330;51.360;6.686;2023-04-25T11:36:58;8.65;;;1.70;;
42662;SDS011;44330;51.360;6.686;2023-04-25T11:39:24;4.53;;;1.23;;
42662;SDS011;44330;51.360;6.686;2023-04-25T11:41:51;7.03;;;1.60;;
42662;SDS011;44330;51.360;6.686;2023-04-25T11:44:17;6.57;;;1.58;;
42662;SDS011;44330;51.360;6.686;2023-04-25T11:46:44;9.00;;;1.85;;
42662;SDS011;44330;51.360;6.686;2023-04-25T11:49:10;8.63;;;1.73;;
42662;SDS011;44330;51.360;6.686;2023-04-25T11:51:42;10.82;;;2.10;;
42662;SDS011;44330;51.360;6.686;2023-04-25T11:54:10;10.23;;;1.70;;
42662;SDS011;44330;51.360;6.686;2023-04-25T11:56:36;8.73;;;2.03;;
42662;SDS011;44330;51.360;6.686;2023-04-25T11:59:03;8.95;;;2.03;;
42662;SDS011;44330;51.360;6.686;2023-04-25T12:01:31;9.70;;;1.90;;
42662;SDS011;44330;51.360;6.686;2023-04-25T12:03:58;9.10;;;2.60;;
42662;SDS011;44330;51.360;6.686;2023-04-25T12:06:38;11.63;;;2.20;;
42662;SDS011;44330;51.360;6.686;2023-04-25T12:09:07;8.88;;;2.38;;
42662;SDS011;44330;51.360;6.686;2023-04-25T12:11:40;9.55;;;2.38;;
42662;SDS011;44330;51.360;6.686;2023-04-25T12:14:10;12.70;;;2.13;;
42662;SDS011;44330;51.360;6.686;2023-04-25T12:16:43;9.35;;;2.10;;
42662;SDS011;44330;51.360;6.686;2023-04-25T12:19:18;8.35;;;1.77;;
42662;SDS011;44330;51.360;6.686;2023-04-25T12:21:44;11.23;;;2.00;;
42662;SDS011;44330;51.360;6.686;2023-04-25T12:26:48;7.03;;;2.30;;
42662;SDS011;44330;51.360;6.686;2023-04-25T12:29:32;12.25;;;2.53;;
42662;SDS011;44330;51.360;6.686;2023-04-25T12:31:59;13.25;;;2.95;;
42662;SDS011;44330;51.360;6.686;2023-04-25T12:34:26;10.20;;;2.35;;
42662;SDS011;44330;51.360;6.686;2023-04-25T12:36:52;6.90;;;1.65;;
42662;SDS011;44330;51.360;6.686;2023-04-25T12:39:19;9.07;;;2.10;;
42662;SDS011;44330;51.360;6.686;2023-04-25T12:41:52;8.63;;;2.13;;
42662;SDS011;44330;51.360;6.686;2023-04-25T12:44:20;6.55;;;2.15;;
42662;SDS011;44330;51.360;6.686;2023-04-25T12:46:46;6.18;;;2.50;;
42662;SDS011;44330;51.360;6.686;2023-04-25T12:49:12;7.13;;;1.65;;
42662;SDS011;44330;51.360;6.686;2023-04-25T12:51:38;8.98;;;1.63;;
42662;SDS011;44330;51.360;6.686;2023-04-25T12:54:04;3.55;;;1.42;;
42662;SDS011;44330;51.360;6.686;2023-04-25T12:56:31;6.72;;;1.73;;
42662;SDS011;44330;51.360;6.686;2023-04-25T12:58:57;5.63;;;1.60;;
42662;SDS011;44330;51.360;6.686;2023-04-25T13:01:23;10.23;;;2.10;;
42662;SDS011;44330;51.360;6.686;2023-04-25T13:03:49;7.03;;;2.10;;
42662;SDS011;44330;51.360;6.686;2023-04-25T13:06:16;10.00;;;1.60;;
42662;SDS011;44330;51.360;6.686;2023-04-25T13:08:42;8.75;;;1.83;;
42662;SDS011;44330;51.360;6.686;2023-04-25T13:11:08;7.28;;;2.25;;
42662;SDS011;44330;51.360;6.686;2023-04-25T13:13:34;7.80;;;1.95;;
42662;SDS011;44330;51.360;6.686;2023-04-25T13:16:03;4.90;;;1.65;;
42662;SDS011;44330;51.360;6.686;2023-04-25T13:18:30;10.50;;;2.25;;
42662;SDS011;44330;51.360;6.686;2023-04-25T13:20:56;7.10;;;2.30;;
42662;SDS011;44330;51.360;6.686;2023-04-25T13:23:22;6.50;;;2.38;;
42662;SDS011;44330;51.360;6.686;2023-04-25T13:25:48;5.80;;;1.73;;
42662;SDS011;44330;51.360;6.686;2023-04-25T13:28:14;8.07;;;1.27;;
42662;SDS011;44330;51.360;6.686;2023-04-25T13:30:40;4.45;;;1.10;;
42662;SDS011;44330;51.360;6.686;2023-04-25T13:33:05;7.20;;;1.85;;
42662;SDS011;44330;51.360;6.686;2023-04-25T13:35:31;13.40;;;2.90;;
42662;SDS011;44330;51.360;6.686;2023-04-25T13:37:58;8.52;;;1.83;;
42662;SDS011;44330;51.360;6.686;2023-04-25T13:40:23;7.78;;;1.73;;
42662;SDS011;44330;51.360;6.686;2023-04-25T13:42:49;7.53;;;1.42;;
42662;SDS011;44330;51.360;6.686;2023-04-25T13:45:15;5.43;;;1.60;;
42662;SDS011;44330;51.360;6.686;2023-04-25T13:47:41;6.97;;;1.50;;
42662;SDS011;44330;51.360;6.686;2023-04-25T13:50:07;8.60;;;1.60;;
42662;SDS011;44330;51.360;6.686;2023-04-25T13:52:33;4.97;;;1.10;;
42662;SDS011;44330;51.360;6.686;2023-04-25T13:55:00;4.97;;;1.45;;
42662;SDS011;44330;51.360;6.686;2023-04-25T13:57:27;6.10;;;1.38;;
42662;SDS011;44330;51.360;6.686;2023-04-25T13:59:53;4.32;;;1.13;;
42662;SDS011;44330;51.360;6.686;2023-04-25T14:02:19;4.88;;;1.23;;
42662;SDS011;44330;51.360;6.686;2023-04-25T14:04:44;7.28;;;1.63;;
42662;SDS011;44330;51.360;6.686;2023-04-25T14:07:10;4.70;;;1.52;;
42662;SDS011;44330;51.360;6.686;2023-04-25T14:09:36;5.80;;;1.50;;
42662;SDS011;44330;51.360;6.686;2023-04-25T14:12:02;6.40;;;1.42;;
42662;SDS011;44330;51.360;6.686;2023-04-25T14:14:27;5.78;;;1.23;;
42662;SDS011;44330;51.360;6.686;2023-04-25T14:16:53;4.57;;;1.92;;
42662;SDS011;44330;51.360;6.686;2023-04-25T14:19:19;9.40;;;2.20;;
42662;SDS011;44330;51.360;6.686;2023-04-25T14:21:46;8.00;;;2.28;;
42662;SDS011;44330;51.360;6.686;2023-04-25T14:24:11;9.50;;;2.25;;
42662;SDS011;44330;51.360;6.686;2023-04-25T14:26:39;6.32;;;1.48;;
42662;SDS011;44330;51.360;6.686;2023-04-25T14:29:06;5.80;;;2.00;;
42662;SDS011;44330;51.360;6.686;2023-04-25T14:31:36;4.78;;;1.70;;
42662;SDS011;44330;51.360;6.686;2023-04-25T14:34:03;25.38;;;3.15;;
42662;SDS011;44330;51.360;6.686;2023-04-25T14:36:29;4.97;;;1.42;;
42662;SDS011;44330;51.360;6.686;2023-04-25T14:38:55;6.72;;;1.88;;
42662;SDS011;44330;51.360;6.686;2023-04-25T14:41:21;7.65;;;1.98;;
42662;SDS011;44330;51.360;6.686;2023-04-25T14:43:48;6.68;;;1.60;;